createdAt,value
2019-03-13T00:02:10.091Z,74.80
2019-03-13T00:04:40.570Z,74.38
2019-03-13T00:07:11.594Z,74.23
2019-03-13T00:09:42.157Z,74.07
2019-03-13T00:12:12.689Z,74.18
2019-03-13T00:14:43.408Z,73.69
2019-03-13T00:17:13.954Z,73.73
2019-03-13T00:19:45.987Z,73.95
2019-03-13T00:22:16.519Z,73.95
2019-03-13T00:24:47.185Z,73.88
2019-03-13T00:27:17.651Z,73.05
2019-03-13T00:29:48.173Z,72.91
2019-03-13T00:32:18.666Z,72.96
2019-03-13T00:34:49.379Z,72.28
2019-03-13T00:37:19.906Z,72.28
2019-03-13T00:39:50.564Z,71.96
2019-03-13T00:42:21.172Z,72.40
2019-03-13T00:44:51.754Z,72.52
2019-03-13T00:47:22.042Z,72.42
2019-03-13T00:49:54.217Z,72.21
2019-03-13T00:52:24.521Z,72.36
2019-03-13T00:54:56.407Z,72.21
2019-03-13T00:57:26.719Z,72.40
2019-03-13T01:00:03.501Z,71.94
2019-03-13T01:02:36.550Z,72.36
2019-03-13T01:05:38.605Z,72.80
2019-03-13T01:08:08.943Z,72.93
2019-03-13T01:10:39.374Z,73.50
2019-03-13T01:13:10.050Z,73.03
2019-03-13T01:15:40.423Z,73.10
2019-03-13T01:18:16.089Z,73.15
2019-03-13T01:20:46.049Z,72.79
2019-03-13T01:23:16.344Z,72.78
2019-03-13T01:25:46.832Z,72.81
2019-03-13T01:28:19.592Z,72.62
2019-03-13T01:30:58.450Z,72.53
2019-03-13T01:33:30.582Z,72.43
2019-03-13T01:36:02.923Z,72.34
2019-03-13T01:38:33.525Z,72.24
2019-03-13T01:41:05.415Z,72.48
2019-03-13T01:43:36.642Z,72.88
2019-03-13T01:46:06.922Z,72.81
2019-03-13T01:48:39.027Z,73.36
2019-03-13T01:51:09.601Z,73.56
2019-03-13T01:53:40.804Z,73.16
2019-03-13T01:56:11.135Z,73.05
2019-03-13T01:58:43.545Z,73.18
2019-03-13T02:01:15.269Z,73.21
2019-03-13T02:03:45.595Z,73.02
2019-03-13T02:06:17.183Z,72.22
2019-03-13T02:08:47.831Z,71.92
2019-03-13T02:11:18.380Z,72.06
2019-03-13T02:13:48.911Z,72.43
2019-03-13T02:16:19.209Z,72.78
2019-03-13T02:18:51.469Z,72.71
2019-03-13T02:21:22.293Z,72.16
2019-03-13T02:23:52.898Z,71.88
2019-03-13T02:26:23.479Z,72.38
2019-03-13T02:28:54.004Z,72.29
2019-03-13T02:31:24.621Z,72.31
2019-03-13T02:33:54.938Z,72.10
2019-03-13T02:36:26.773Z,72.44
2019-03-13T02:38:57.184Z,72.17
2019-03-13T02:41:28.053Z,72.26
2019-03-13T02:43:58.415Z,72.28
2019-03-13T02:46:30.322Z,72.28
2019-03-13T02:49:00.710Z,72.28
2019-03-13T02:51:32.039Z,72.41
2019-03-13T02:54:02.675Z,72.72
2019-03-13T02:56:34.219Z,72.99
2019-03-13T02:59:04.558Z,73.56
2019-03-13T03:01:40.175Z,73.48
2019-03-13T03:04:11.660Z,73.15
2019-03-13T03:06:42.339Z,73.11
2019-03-13T03:09:12.773Z,73.04
2019-03-13T03:11:44.439Z,73.15
2019-03-13T03:14:15.072Z,73.43
2019-03-13T03:16:45.348Z,73.35
2019-03-13T03:19:15.930Z,73.96
2019-03-13T03:21:46.546Z,74.47
2019-03-13T03:24:18.084Z,74.44
2019-03-13T03:26:48.401Z,74.22
2019-03-13T03:29:20.933Z,74.12
2019-03-13T03:31:51.391Z,74.18
2019-03-13T03:34:23.009Z,73.83
2019-03-13T03:36:53.316Z,74.34
2019-03-13T03:39:23.642Z,74.41
2019-03-13T03:41:54.283Z,74.44
2019-03-13T03:44:24.575Z,74.44
2019-03-13T03:46:55.131Z,73.88
2019-03-13T03:49:25.426Z,73.69
2019-03-13T03:51:55.743Z,73.26
2019-03-13T03:54:26.023Z,72.82
2019-03-13T03:56:56.904Z,72.15
2019-03-13T03:59:27.165Z,71.29
2019-03-13T04:01:57.785Z,69.41
2019-03-13T04:04:28.409Z,69.41
2019-03-13T04:06:59.108Z,69.13
2019-03-13T04:09:29.996Z,68.45
2019-03-13T04:12:00.932Z,68.48
2019-03-13T04:14:31.268Z,67.93
2019-03-13T04:17:01.652Z,67.48
2019-03-13T04:19:32.229Z,67.32
2019-03-13T04:22:02.579Z,67.32
2019-03-13T04:24:33.108Z,66.71
2019-03-13T04:27:03.671Z,66.69
2019-03-13T04:29:34.649Z,66.53
2019-03-13T04:32:06.066Z,66.49
2019-03-13T04:34:36.381Z,66.24
2019-03-13T04:37:06.956Z,65.85
2019-03-13T04:39:37.245Z,66.07
2019-03-13T04:42:09.462Z,66.05
2019-03-13T04:44:39.739Z,65.75
2019-03-13T04:47:10.413Z,65.59
2019-03-13T04:49:40.679Z,65.47
2019-03-13T04:52:11.121Z,65.57
2019-03-13T04:54:41.738Z,65.64
2019-03-13T04:57:12.073Z,65.48
2019-03-13T04:59:42.479Z,65.79
2019-03-13T05:02:12.792Z,65.74
2019-03-13T05:04:43.126Z,65.70
2019-03-13T05:07:13.750Z,65.79
2019-03-13T05:09:44.032Z,65.99
2019-03-13T05:12:16.767Z,65.93
2019-03-13T05:14:48.283Z,65.94
2019-03-13T05:17:18.593Z,65.95
2019-03-13T05:19:48.866Z,66.07
2019-03-13T05:22:21.459Z,65.91
2019-03-13T05:24:51.426Z,65.56
2019-03-13T05:27:22.015Z,65.50
2019-03-13T05:29:52.307Z,64.88
2019-03-13T05:32:22.728Z,65.19
2019-03-13T05:34:53.006Z,65.05
2019-03-13T05:37:25.104Z,65.18
2019-03-13T05:39:55.421Z,65.24
2019-03-13T05:42:27.085Z,64.75
2019-03-13T05:44:57.350Z,64.71
2019-03-13T05:47:27.676Z,64.72
2019-03-13T05:49:58.308Z,64.69
2019-03-13T05:52:28.650Z,64.93
2019-03-13T05:54:59.208Z,64.56
2019-03-13T05:57:29.825Z,64.74
2019-03-13T06:00:00.937Z,64.79
2019-03-13T06:02:31.398Z,64.73
2019-03-13T06:05:02.753Z,64.66
2019-03-13T06:07:35.883Z,64.57
2019-03-13T06:10:07.177Z,64.51
2019-03-13T06:12:37.903Z,64.22
2019-03-13T06:15:09.047Z,64.40
2019-03-13T06:17:39.616Z,64.66
2019-03-13T06:20:10.845Z,64.61
2019-03-13T06:22:44.319Z,64.79
2019-03-13T06:25:14.679Z,64.54
2019-03-13T06:27:46.688Z,64.97
2019-03-13T06:30:17.195Z,65.31
2019-03-13T06:32:47.868Z,65.96
2019-03-13T06:35:18.458Z,65.64
2019-03-13T06:37:49.041Z,65.74
2019-03-13T06:40:19.494Z,65.93
2019-03-13T06:42:50.580Z,66.57
2019-03-13T06:45:23.317Z,66.82
2019-03-13T06:47:54.555Z,66.57
2019-03-13T06:50:24.968Z,66.50
2019-03-13T06:52:55.486Z,67.28
2019-03-13T06:55:25.933Z,70.83
2019-03-13T06:57:56.235Z,70.83
2019-03-13T07:00:44.277Z,72.04
2019-03-13T07:03:44.350Z,71.68
2019-03-13T07:06:43.836Z,71.58
2019-03-13T07:09:39.280Z,70.76
2019-03-13T07:12:25.840Z,70.84
2019-03-13T07:15:24.587Z,70.73
2019-03-13T07:18:16.938Z,71.20
2019-03-13T07:20:58.582Z,71.41
2019-03-13T07:23:42.327Z,71.22
2019-03-13T07:26:30.190Z,71.02
2019-03-13T07:29:19.738Z,71.61
2019-03-13T07:32:24.420Z,72.36
2019-03-13T07:35:12.845Z,72.36
2019-03-13T07:38:16.097Z,73.91
2019-03-13T07:41:04.638Z,76.03
2019-03-13T07:43:56.555Z,78.50
2019-03-13T07:46:44.721Z,79.83
2019-03-13T07:49:49.394Z,80.66
2019-03-13T07:52:37.648Z,81.11
2019-03-13T07:55:17.507Z,81.43
2019-03-13T07:58:00.565Z,81.54
2019-03-13T08:00:55.699Z,81.79
2019-03-13T08:03:44.936Z,81.63
2019-03-13T08:06:43.428Z,81.53
2019-03-13T08:09:24.032Z,81.57
2019-03-13T08:12:12.533Z,81.26
2019-03-13T08:14:55.238Z,81.06
2019-03-13T08:17:31.734Z,80.20
2019-03-13T08:20:13.479Z,79.77
2019-03-13T08:23:02.914Z,76.27
2019-03-13T08:25:41.482Z,72.92
2019-03-13T08:28:29.206Z,72.08
2019-03-13T08:31:14.400Z,71.23
2019-03-13T08:34:05.299Z,70.18
2019-03-13T08:36:57.823Z,69.68
2019-03-13T08:39:58.671Z,69.59
2019-03-13T08:42:52.930Z,69.64
2019-03-13T08:45:40.482Z,70.05
2019-03-13T08:48:31.191Z,70.13
2019-03-13T08:51:26.556Z,69.44
2019-03-13T08:54:18.538Z,69.04
2019-03-13T08:57:07.932Z,68.33
2019-03-13T08:59:45.083Z,68.43
2019-03-13T09:02:44.596Z,69.09
2019-03-13T09:05:32.548Z,69.72
2019-03-13T09:08:31.184Z,71.76
2019-03-13T09:11:20.429Z,73.56
2019-03-13T09:14:12.863Z,75.50
2019-03-13T09:16:52.791Z,76.67
2019-03-13T09:19:42.369Z,78.53
2019-03-13T09:29:45.274Z,80.42
2019-03-13T09:32:33.244Z,81.00
2019-03-13T09:35:14.813Z,81.72
2019-03-13T09:38:03.023Z,81.68
2019-03-13T09:40:45.592Z,81.83
2019-03-13T09:43:36.130Z,81.84
2019-03-13T09:46:19.956Z,82.26
2019-03-13T09:49:21.571Z,82.47
2019-03-13T09:52:16.670Z,82.64
2019-03-13T09:55:04.969Z,81.91
2019-03-13T09:57:53.275Z,81.83
2019-03-13T10:00:51.908Z,81.66
2019-03-13T10:03:33.116Z,80.67
2019-03-13T10:06:25.425Z,80.88
2019-03-13T10:09:17.968Z,81.04
2019-03-13T10:11:59.186Z,79.99
2019-03-13T10:14:37.200Z,79.49
2019-03-13T10:17:32.699Z,78.58
2019-03-13T10:20:20.216Z,78.49
2019-03-13T10:23:18.952Z,78.13
2019-03-13T10:26:00.131Z,77.82
2019-03-13T10:28:52.653Z,74.72
2019-03-13T10:31:42.815Z,70.83
2019-03-13T10:34:32.107Z,70.35
2019-03-13T10:37:18.870Z,71.77
2019-03-13T10:40:05.662Z,71.55
2019-03-13T10:42:50.043Z,71.55
2019-03-13T10:45:26.874Z,70.96
2019-03-13T10:48:03.360Z,71.82
2019-03-13T10:50:58.785Z,70.74
2019-03-13T10:53:51.215Z,69.75
2019-03-13T10:56:40.560Z,69.75
2019-03-13T10:59:34.270Z,68.80
2019-03-13T11:02:39.190Z,67.78
2019-03-13T11:05:21.350Z,67.87
2019-03-13T11:08:05.734Z,66.34
2019-03-13T11:11:00.993Z,65.64
2019-03-13T11:13:56.485Z,65.30
2019-03-13T11:16:47.959Z,63.83
2019-03-13T11:19:45.708Z,64.35
2019-03-13T11:22:25.597Z,64.07
2019-03-13T11:25:03.797Z,63.77
2019-03-13T11:27:53.684Z,64.54
2019-03-13T11:30:40.021Z,65.40
2019-03-13T11:33:29.876Z,65.58
2019-03-13T11:36:28.854Z,66.70
2019-03-13T11:39:19.471Z,66.79
2019-03-13T11:42:08.918Z,66.06
2019-03-13T11:44:56.367Z,66.06
2019-03-13T11:47:54.117Z,66.83
2019-03-13T11:50:35.966Z,65.56
2019-03-13T11:53:13.178Z,64.93
2019-03-13T11:55:50.509Z,65.62
2019-03-13T11:58:55.650Z,65.41
2019-03-13T12:01:45.429Z,65.41
2019-03-13T12:04:38.020Z,65.85
2019-03-13T12:07:33.052Z,66.46
2019-03-13T12:10:18.066Z,67.70
2019-03-13T12:13:29.845Z,70.40
2019-03-13T12:16:04.829Z,71.71
2019-03-13T12:18:48.807Z,74.12
2019-03-13T12:21:37.985Z,76.88
2019-03-13T12:24:39.912Z,78.30
2019-03-13T12:27:44.709Z,79.14
2019-03-13T12:30:33.979Z,79.05
2019-03-13T12:33:35.620Z,78.99
2019-03-13T12:36:30.974Z,78.99
2019-03-13T12:39:32.404Z,79.45
2019-03-13T12:42:24.476Z,79.81
2019-03-13T12:45:14.062Z,80.32
2019-03-13T12:47:51.578Z,80.25
2019-03-13T12:50:52.855Z,80.81
2019-03-13T12:53:57.518Z,81.26
2019-03-13T12:56:49.816Z,81.81
2019-03-13T12:59:35.238Z,82.50
2019-03-13T13:02:19.381Z,82.50
2019-03-13T13:05:03.335Z,83.03
2019-03-13T13:07:43.584Z,83.03
2019-03-13T13:10:26.359Z,83.32
2019-03-13T13:13:18.978Z,83.64
2019-03-13T13:16:14.026Z,83.82
2019-03-13T13:18:54.534Z,83.86
2019-03-13T13:21:24.941Z,83.55
2019-03-13T13:23:56.864Z,83.19
2019-03-13T13:26:27.548Z,83.19
2019-03-13T13:28:59.874Z,82.37
2019-03-13T13:31:30.407Z,82.25
2019-03-13T13:34:01.197Z,82.08
2019-03-13T13:36:31.783Z,81.79
2019-03-13T13:39:03.532Z,81.63
2019-03-13T13:41:35.522Z,82.07
2019-03-13T13:44:06.054Z,82.49
2019-03-13T13:46:39.125Z,82.74
2019-03-13T13:49:10.853Z,83.20
2019-03-13T13:51:41.206Z,83.44
2019-03-13T13:54:11.806Z,83.44
2019-03-13T13:56:42.199Z,82.81
2019-03-13T13:59:12.746Z,83.30
2019-03-13T14:01:43.021Z,83.80
2019-03-13T14:04:13.774Z,84.00
2019-03-13T14:06:44.103Z,84.36
2019-03-13T14:09:14.394Z,84.31
2019-03-13T14:11:44.967Z,84.39
2019-03-13T14:14:15.321Z,84.52
2019-03-13T14:16:45.672Z,84.47
2019-03-13T14:19:16.007Z,84.58
2019-03-13T14:21:47.718Z,84.79
2019-03-13T14:24:18.188Z,84.92
2019-03-13T14:26:50.064Z,85.05
2019-03-13T14:29:21.143Z,85.14
2019-03-13T14:31:52.252Z,85.32
2019-03-13T14:34:22.574Z,85.48
2019-03-13T14:36:53.232Z,85.67
2019-03-13T14:39:23.539Z,85.68
2019-03-13T14:41:54.517Z,85.31
2019-03-13T14:44:24.990Z,85.20
2019-03-13T14:46:55.346Z,85.06
2019-03-13T14:49:26.031Z,85.03
2019-03-13T14:51:56.738Z,84.34
2019-03-13T14:54:28.730Z,83.97
2019-03-13T14:56:59.331Z,83.56
2019-03-13T14:59:30.106Z,83.58
2019-03-13T15:04:40.149Z,83.55
2019-03-13T15:07:10.476Z,83.87
2019-03-13T15:09:40.760Z,83.89
2019-03-13T15:12:11.068Z,83.85
2019-03-13T15:14:45.636Z,83.83
2019-03-13T15:17:17.721Z,83.65
2019-03-13T15:19:48.090Z,83.65
2019-03-13T15:22:18.451Z,84.01
2019-03-13T15:24:50.775Z,84.27
2019-03-13T15:27:21.266Z,84.21
2019-03-13T15:29:51.862Z,84.38
2019-03-13T15:32:22.227Z,84.37
2019-03-13T15:34:53.788Z,84.19
2019-03-13T15:37:24.093Z,84.01
2019-03-13T15:39:54.718Z,84.03
2019-03-13T15:42:25.065Z,84.03
2019-03-13T15:44:57.621Z,84.16
2019-03-13T15:47:27.948Z,83.96
2019-03-13T15:49:58.314Z,83.92
2019-03-13T15:52:28.613Z,84.07
2019-03-13T15:54:58.967Z,83.96
2019-03-13T15:57:29.341Z,83.98
2019-03-13T16:00:00.576Z,84.00
2019-03-13T16:02:31.680Z,84.03
2019-03-13T16:05:02.096Z,83.89
2019-03-13T16:07:32.739Z,83.44
2019-03-13T16:10:03.681Z,82.76
2019-03-13T16:12:34.440Z,82.22
2019-03-13T16:15:05.671Z,82.11
2019-03-13T16:17:38.048Z,81.82
2019-03-13T16:20:09.431Z,82.16
2019-03-13T16:22:41.798Z,82.67
2019-03-13T16:25:12.455Z,83.07
2019-03-13T16:27:43.346Z,83.07
2019-03-13T16:30:18.675Z,83.50
2019-03-13T16:32:49.077Z,83.86
2019-03-13T16:35:19.686Z,84.16
2019-03-13T16:37:54.210Z,84.43
2019-03-13T16:40:24.943Z,84.62
2019-03-13T16:42:55.242Z,84.91
2019-03-13T16:45:26.080Z,84.98
2019-03-13T16:47:57.818Z,85.08
2019-03-13T16:50:28.414Z,85.26
2019-03-13T16:52:59.254Z,85.29
2019-03-13T16:55:31.171Z,85.37
2019-03-13T17:00:39.779Z,85.57
2019-03-13T17:03:10.248Z,85.52
2019-03-13T17:05:40.680Z,85.50
2019-03-13T17:08:11.404Z,85.50
2019-03-13T17:10:41.739Z,85.55
2019-03-13T17:13:12.169Z,85.93
2019-03-13T17:15:42.546Z,85.93
2019-03-13T17:18:12.941Z,85.72
2019-03-13T17:20:43.362Z,85.85
2019-03-13T17:23:13.987Z,86.00
2019-03-13T17:25:44.629Z,86.14
2019-03-13T17:28:15.225Z,86.23
2019-03-13T17:30:46.631Z,86.35
2019-03-13T17:33:17.861Z,86.44
2019-03-13T17:35:49.610Z,86.53
2019-03-13T17:38:21.641Z,86.57
2019-03-13T17:40:53.680Z,86.64
2019-03-13T17:43:23.977Z,86.65
2019-03-13T17:45:54.339Z,86.70
2019-03-13T17:48:24.753Z,86.76
2019-03-13T17:50:55.442Z,86.76
2019-03-13T17:53:25.854Z,86.84
2019-03-13T17:55:56.268Z,86.86
2019-03-13T17:58:26.707Z,86.88
2019-03-13T18:00:57.526Z,86.76
2019-03-13T18:03:27.931Z,86.76
2019-03-13T18:06:00.648Z,86.95
2019-03-13T18:08:31.081Z,86.97
2019-03-13T18:11:01.817Z,87.04
2019-03-13T18:13:33.236Z,87.00
2019-03-13T18:16:05.491Z,87.00
2019-03-13T18:18:36.527Z,87.00
2019-03-13T18:21:08.628Z,87.00
2019-03-13T18:23:39.291Z,86.96
2019-03-13T18:26:11.142Z,86.89
2019-03-13T18:28:43.395Z,86.73
2019-03-13T18:31:13.768Z,86.70
2019-03-13T18:33:44.440Z,86.72
2019-03-13T18:36:16.355Z,86.71
2019-03-13T18:38:47.900Z,86.65
2019-03-13T18:41:18.835Z,86.58
2019-03-13T18:43:49.283Z,86.68
2019-03-13T18:46:19.692Z,86.69
2019-03-13T18:48:50.555Z,86.72
2019-03-13T18:51:21.190Z,86.71
2019-03-13T18:53:51.683Z,86.64
2019-03-13T18:56:23.458Z,86.55
2019-03-13T18:58:54.081Z,86.25
2019-03-13T19:01:24.902Z,85.78
2019-03-13T19:03:55.236Z,85.30
2019-03-13T19:06:27.303Z,84.91
2019-03-13T19:08:58.812Z,84.57
2019-03-13T19:11:31.586Z,84.47
2019-03-13T19:14:01.955Z,84.73
2019-03-13T19:16:33.724Z,84.80
2019-03-13T19:19:04.317Z,84.76
2019-03-13T19:21:34.812Z,84.61
2019-03-13T19:24:05.279Z,84.25
2019-03-13T19:26:35.723Z,83.91
2019-03-13T19:29:06.205Z,83.61
2019-03-13T19:31:36.607Z,83.26
2019-03-13T19:34:09.159Z,83.03
2019-03-13T19:36:39.735Z,82.71
2019-03-13T19:39:10.320Z,82.70
2019-03-13T19:41:41.728Z,82.65
2019-03-13T19:44:12.105Z,82.31
2019-03-13T19:46:43.872Z,81.99
2019-03-13T19:49:14.301Z,81.57
2019-03-13T19:51:44.693Z,81.26
2019-03-13T19:54:17.287Z,80.83
2019-03-13T19:56:47.670Z,80.22
2019-03-13T19:59:20.844Z,80.27
2019-03-13T20:01:51.354Z,80.50
2019-03-13T20:04:21.906Z,80.56
2019-03-13T20:06:52.324Z,80.43
2019-03-13T20:11:58.866Z,80.35
2019-03-13T20:14:33.619Z,80.18
2019-03-13T20:17:04.455Z,79.78
2019-03-13T20:19:37.321Z,79.83
2019-03-13T20:22:08.892Z,79.31
2019-03-13T20:24:39.449Z,79.17
2019-03-13T20:27:10.190Z,79.10
2019-03-13T20:29:40.595Z,79.30
2019-03-13T20:37:40.670Z,80.24
2019-03-13T20:40:14.515Z,80.65
2019-03-13T20:42:45.147Z,80.93
2019-03-13T20:45:23.086Z,81.04
2019-03-13T20:47:54.858Z,81.22
2019-03-13T20:50:35.698Z,81.37
2019-03-13T20:52:59.348Z,81.50
2019-03-13T20:55:29.758Z,81.53
2019-03-13T20:58:00.397Z,81.52
2019-03-13T21:00:34.524Z,81.76
2019-03-13T21:03:04.272Z,81.78
2019-03-13T21:05:35.036Z,81.56
2019-03-13T21:08:05.771Z,81.59
2019-03-13T21:10:38.445Z,81.58
2019-03-13T21:13:08.670Z,81.60
2019-03-13T21:15:39.513Z,81.92
2019-03-13T21:18:11.513Z,81.92
2019-03-13T21:20:41.887Z,81.86
2019-03-13T21:23:12.231Z,81.84
2019-03-13T21:25:42.848Z,81.90
2019-03-13T21:30:49.524Z,82.13
2019-03-13T21:33:24.015Z,82.19
2019-03-13T21:35:53.695Z,81.79
2019-03-13T21:38:24.586Z,81.26
2019-03-13T21:40:55.175Z,80.53
2019-03-13T21:43:27.866Z,80.53
2019-03-13T21:45:58.528Z,80.52
2019-03-13T21:48:28.951Z,80.55
2019-03-13T21:50:59.980Z,80.11
2019-03-13T21:53:30.333Z,79.57
2019-03-13T21:56:02.941Z,79.24
2019-03-13T21:58:34.752Z,78.99
2019-03-13T22:01:05.726Z,78.99
2019-03-13T22:03:36.010Z,79.33
2019-03-13T22:06:06.509Z,79.37
2019-03-13T22:08:38.035Z,79.40
2019-03-13T22:11:08.666Z,78.94
2019-03-13T22:13:39.094Z,78.90
2019-03-13T22:16:10.032Z,79.33
2019-03-13T22:18:40.356Z,79.48
2019-03-13T22:21:12.636Z,79.34
2019-03-13T22:23:43.073Z,79.35
2019-03-13T22:26:14.523Z,78.95
2019-03-13T22:28:44.869Z,78.53
2019-03-13T22:31:15.499Z,78.81
2019-03-13T22:33:45.816Z,78.81
2019-03-13T22:36:17.559Z,78.99
2019-03-13T22:38:47.848Z,79.14
2019-03-13T22:41:19.442Z,79.06
2019-03-13T22:43:50.181Z,78.87
2019-03-13T22:46:20.689Z,78.49
2019-03-13T22:48:58.262Z,78.13
2019-03-13T22:51:23.067Z,77.74
2019-03-13T22:53:53.634Z,77.33
2019-03-13T22:56:25.624Z,76.96
2019-03-13T22:58:55.925Z,76.99
2019-03-13T23:01:27.013Z,76.86
2019-03-13T23:03:57.976Z,77.08
2019-03-13T23:06:28.680Z,77.30
2019-03-13T23:08:59.438Z,77.20
2019-03-13T23:11:29.967Z,77.13
2019-03-13T23:14:00.881Z,77.44
2019-03-13T23:16:34.173Z,77.89
2019-03-13T23:19:05.970Z,78.01
2019-03-13T23:21:36.252Z,78.12
2019-03-13T23:24:07.773Z,78.34
2019-03-13T23:26:38.074Z,78.57
2019-03-13T23:29:10.307Z,78.29
2019-03-13T23:31:40.667Z,78.29
2019-03-13T23:34:10.956Z,78.03
2019-03-13T23:36:41.279Z,77.81
2019-03-13T23:39:12.432Z,77.71
2019-03-13T23:41:43.406Z,77.75
2019-03-13T23:44:13.715Z,77.88
2019-03-13T23:46:45.966Z,77.92
2019-03-13T23:49:16.357Z,77.69
2019-03-13T23:51:46.981Z,77.55
2019-03-13T23:54:17.444Z,77.24
2019-03-13T23:56:48.158Z,77.50
2019-03-13T23:59:18.459Z,78.07
